Mount Hebron, Alabama
Current Conditions -  °F | °C
As of 3:35 PM on Monday 24 Nov 2014 (Local Time) from KDYA Reporting Station
Clear Clear  
Wind Chill: 65°   Ceiling: Unl
Heat Index: 65°   Visibility: 10mi
Dew Point: 43°   Wind: 5mph
Humidity: 45%   Direction: 310°NW
Pressure: 29.92"   Gusts: NA
Location:  32.7634°N, 88.0273°W
Report Text: KDYA 242135Z AUTO 31004KT 10SM CLR 18/06 A2992 RMK AO2 T01810060
Loading
Personal Weather Stations






























Interactive Weather Map New forecast layout! Learn more

10-Day Weather Forecast

Advertisements
Track Severe Weather on mobile